Terminal Aerodrome Forecast
Issued by NWS Melbourne, FL

Home | Current Version | Previous Version | Text Only | Print | Product List | Glossary On
Versions: 1 2 3 4 5 6 7 8 9 10 11 12
000
FTUS42 KMLB 181728
TAFVRB
TAF
KVRB 181728Z 1818/1918 26008KT P6SM SCT040
     FM190000 28004KT P6SM FEW040
     FM190900 00000KT 5SM BR SCT250
     FM191400 34004KT P6SM SCT250=

USA.gov is the U.S. government's official web portal to all federal, state and local government web resources and services.